createdAt,value
2018-12-22T00:02:25.999Z,8.74
2018-12-22T00:05:27.760Z,8.76
2018-12-22T00:08:29.641Z,8.84
2018-12-22T00:11:31.416Z,8.91
2018-12-22T00:14:34.393Z,8.99
2018-12-22T00:17:36.121Z,9.04
2018-12-22T00:20:37.960Z,9.06
2018-12-22T00:23:39.773Z,9.22
2018-12-22T00:26:41.618Z,9.43
2018-12-22T00:29:43.357Z,9.55
2018-12-22T00:32:45.123Z,9.57
2018-12-22T00:35:46.867Z,9.50
2018-12-22T00:38:48.717Z,9.46
2018-12-22T00:41:50.437Z,9.44
2018-12-22T00:44:52.315Z,9.48
2018-12-22T00:47:54.160Z,9.51
2018-12-22T00:50:56.298Z,9.56
2018-12-22T00:53:58.074Z,9.58
2018-12-22T00:56:59.857Z,9.60
2018-12-22T01:00:01.671Z,9.62
2018-12-22T01:03:03.591Z,9.68
2018-12-22T01:06:05.332Z,9.73
2018-12-22T01:09:07.321Z,9.76
2018-12-22T01:12:09.795Z,9.77
2018-12-22T01:15:11.615Z,9.75
2018-12-22T01:18:13.357Z,9.71
2018-12-22T01:21:15.165Z,9.67
2018-12-22T01:24:16.915Z,9.72
2018-12-22T01:27:18.691Z,9.65
2018-12-22T01:30:20.461Z,9.65
2018-12-22T01:33:22.298Z,9.64
2018-12-22T01:36:24.131Z,9.71
2018-12-22T01:39:26.044Z,9.75
2018-12-22T01:42:27.894Z,9.79
2018-12-22T01:45:29.702Z,9.78
2018-12-22T01:48:31.538Z,9.84
2018-12-22T01:51:33.412Z,9.88
2018-12-22T01:54:35.313Z,9.90
2018-12-22T01:57:37.202Z,9.90
2018-12-22T02:00:39.070Z,9.89
2018-12-22T02:03:40.824Z,9.89
2018-12-22T02:06:42.729Z,9.93
2018-12-22T02:09:44.541Z,9.97
2018-12-22T02:12:46.350Z,9.96
2018-12-22T02:15:48.111Z,9.98
2018-12-22T02:18:49.921Z,10.03
2018-12-22T02:21:51.739Z,10.06
2018-12-22T02:24:53.552Z,10.11
2018-12-22T02:27:55.312Z,10.17
2018-12-22T02:30:57.200Z,10.24
2018-12-22T02:33:58.983Z,10.27
2018-12-22T02:37:00.823Z,10.30
2018-12-22T02:40:05.059Z,10.32
2018-12-22T02:43:06.855Z,10.37
2018-12-22T02:46:08.660Z,10.39
2018-12-22T02:49:10.531Z,10.44
2018-12-22T02:52:13.479Z,10.47
2018-12-22T02:55:15.315Z,10.43
2018-12-22T02:58:17.060Z,10.37
2018-12-22T03:01:18.971Z,10.41
2018-12-22T03:04:20.778Z,10.38
2018-12-22T03:07:22.663Z,10.38
2018-12-22T03:10:24.503Z,10.42
2018-12-22T03:13:26.383Z,10.57
2018-12-22T03:16:28.152Z,10.72
2018-12-22T03:19:29.955Z,10.84
2018-12-22T03:22:31.762Z,10.94
2018-12-22T03:25:33.592Z,11.02
2018-12-22T03:28:35.426Z,11.10
2018-12-22T03:31:37.242Z,11.20
2018-12-22T03:34:38.983Z,11.23
2018-12-22T03:37:40.891Z,11.28
2018-12-22T03:40:42.772Z,11.29
2018-12-22T03:43:44.722Z,11.21
2018-12-22T03:46:47.829Z,11.21
2018-12-22T03:49:49.702Z,11.13
2018-12-22T03:52:51.467Z,11.12
2018-12-22T03:55:53.239Z,11.09
2018-12-22T03:58:54.981Z,11.02
2018-12-22T04:01:56.927Z,10.92
2018-12-22T04:04:58.738Z,10.93
2018-12-22T04:08:00.573Z,10.97
2018-12-22T04:11:02.610Z,11.06
2018-12-22T04:14:04.504Z,11.16
2018-12-22T04:17:06.351Z,11.21
2018-12-22T04:20:08.351Z,11.20
2018-12-22T04:23:10.152Z,11.27
2018-12-22T04:26:11.966Z,11.31
2018-12-22T04:29:13.810Z,11.31
2018-12-22T04:32:15.541Z,11.34
2018-12-22T04:35:17.287Z,11.25
2018-12-22T04:38:19.063Z,11.11
2018-12-22T04:41:20.909Z,11.09
2018-12-22T04:44:22.939Z,11.10
2018-12-22T04:47:24.768Z,11.04
2018-12-22T04:50:26.612Z,10.95
2018-12-22T04:53:28.428Z,10.86
2018-12-22T04:56:30.241Z,10.79
2018-12-22T04:59:32.056Z,10.76
2018-12-22T05:02:35.198Z,10.81
2018-12-22T05:05:37.036Z,10.83
2018-12-22T05:08:39.333Z,10.79
2018-12-22T05:11:41.285Z,10.77
2018-12-22T05:14:43.139Z,10.78
2018-12-22T05:17:44.925Z,10.76
2018-12-22T05:20:46.678Z,10.74
2018-12-22T05:23:48.587Z,10.78
2018-12-22T05:26:51.293Z,10.76
2018-12-22T05:29:53.171Z,10.74
2018-12-22T05:32:54.976Z,10.75
2018-12-22T05:35:56.739Z,10.79
2018-12-22T05:38:58.488Z,10.76
2018-12-22T05:42:00.298Z,10.76
2018-12-22T05:45:02.164Z,10.85
2018-12-22T05:48:03.966Z,10.92
2018-12-22T05:51:05.793Z,11.03
2018-12-22T05:54:07.593Z,11.05
2018-12-22T05:57:09.433Z,11.09
2018-12-22T06:00:11.333Z,11.15
2018-12-22T06:03:13.217Z,11.21
2018-12-22T06:06:14.996Z,11.22
2018-12-22T06:09:16.835Z,11.17
2018-12-22T06:12:18.696Z,11.11
2018-12-22T06:15:20.470Z,11.08
2018-12-22T06:18:22.450Z,11.08
2018-12-22T06:21:24.261Z,11.06
2018-12-22T06:24:26.052Z,10.99
2018-12-22T06:27:27.990Z,10.93
2018-12-22T06:30:29.765Z,10.83
2018-12-22T06:33:31.548Z,10.85
2018-12-22T06:36:33.305Z,10.92
2018-12-22T06:39:35.229Z,11.01
2018-12-22T06:42:43.479Z,11.08
2018-12-22T06:45:45.363Z,11.07
2018-12-22T06:48:47.327Z,11.04
2018-12-22T06:51:49.171Z,11.03
2018-12-22T06:54:51.153Z,10.99
2018-12-22T06:57:53.005Z,10.91
2018-12-22T07:00:54.856Z,10.84
2018-12-22T07:03:56.727Z,10.75
2018-12-22T07:06:58.526Z,10.66
2018-12-22T07:10:00.559Z,10.61
2018-12-22T07:13:02.466Z,10.63
2018-12-22T07:16:04.305Z,10.62
2018-12-22T07:19:06.087Z,10.64
2018-12-22T07:22:08.016Z,10.68
2018-12-22T07:25:09.892Z,10.75
2018-12-22T07:28:11.799Z,10.81
2018-12-22T07:31:13.778Z,10.85
2018-12-22T07:34:15.670Z,10.90
2018-12-22T07:37:17.543Z,10.91
2018-12-22T07:40:19.385Z,10.89
2018-12-22T07:43:21.209Z,10.88
2018-12-22T07:46:23.476Z,10.88
2018-12-22T07:49:25.284Z,10.94
2018-12-22T07:52:27.073Z,11.00
2018-12-22T07:55:28.826Z,11.08
2018-12-22T07:58:30.748Z,11.13
2018-12-22T08:01:32.597Z,11.23
2018-12-22T08:04:34.469Z,11.36
2018-12-22T08:07:36.509Z,11.41
2018-12-22T08:10:38.557Z,11.44
2018-12-22T08:13:40.374Z,11.40
2018-12-22T08:16:42.220Z,11.40
2018-12-22T08:19:43.994Z,11.38
2018-12-22T08:22:45.889Z,11.33
2018-12-22T08:25:47.694Z,11.25
2018-12-22T08:28:49.796Z,11.17
2018-12-22T08:31:51.552Z,11.16
2018-12-22T08:34:53.349Z,11.18
2018-12-22T08:37:55.167Z,11.22
2018-12-22T08:40:57.046Z,11.27
2018-12-22T08:43:59.006Z,11.23
2018-12-22T08:47:00.843Z,11.13
2018-12-22T08:50:08.942Z,11.12
2018-12-22T08:53:07.086Z,11.08
2018-12-22T08:56:08.879Z,11.13
2018-12-22T08:59:10.702Z,11.09
2018-12-22T09:02:12.619Z,11.13
2018-12-22T09:05:14.381Z,11.13
2018-12-22T09:08:16.159Z,11.15
2018-12-22T09:11:17.908Z,11.18
2018-12-22T09:14:19.747Z,11.28
2018-12-22T09:17:21.562Z,11.22
2018-12-22T09:20:23.506Z,11.21
2018-12-22T09:23:25.354Z,11.23
2018-12-22T09:26:27.122Z,11.30
2018-12-22T09:29:28.973Z,11.34
2018-12-22T09:32:31.065Z,11.33
2018-12-22T09:35:32.876Z,11.31
2018-12-22T09:38:34.709Z,11.37
2018-12-22T09:41:36.462Z,11.39
2018-12-22T09:44:38.334Z,11.38
2018-12-22T09:47:40.191Z,11.53
2018-12-22T09:50:42.296Z,11.58
2018-12-22T09:53:44.040Z,11.56
2018-12-22T09:56:45.805Z,11.58
2018-12-22T09:59:47.751Z,11.60
2018-12-22T10:02:49.548Z,11.64
2018-12-22T10:05:51.412Z,11.69
2018-12-22T10:08:53.171Z,11.71
2018-12-22T10:11:55.121Z,11.65
2018-12-22T10:14:57.141Z,11.64
2018-12-22T10:17:59.099Z,11.61
2018-12-22T10:21:00.944Z,11.66
2018-12-22T10:24:02.736Z,11.63
2018-12-22T10:27:04.518Z,11.56
2018-12-22T10:30:08.610Z,11.43
2018-12-22T10:33:10.500Z,11.42
2018-12-22T10:36:12.513Z,11.41
2018-12-22T10:39:14.361Z,11.39
2018-12-22T10:42:16.203Z,11.43
2018-12-22T10:45:17.970Z,11.42
2018-12-22T10:48:19.831Z,11.44
2018-12-22T10:51:24.379Z,11.49
2018-12-22T10:54:25.692Z,11.52
2018-12-22T10:57:27.502Z,11.62
2018-12-22T11:00:29.635Z,11.57
2018-12-22T11:03:32.168Z,11.63
2018-12-22T11:06:34.193Z,11.69
2018-12-22T11:09:36.004Z,11.78
2018-12-22T11:12:37.922Z,11.89
2018-12-22T11:15:39.745Z,11.88
2018-12-22T11:18:41.704Z,11.96
2018-12-22T11:21:43.678Z,12.02
2018-12-22T11:24:45.560Z,12.02
2018-12-22T11:27:47.435Z,12.04
2018-12-22T11:30:50.431Z,12.05
2018-12-22T11:33:52.304Z,12.05
2018-12-22T11:36:54.046Z,12.05
2018-12-22T11:39:55.860Z,12.07
2018-12-22T11:42:57.696Z,12.08
2018-12-22T11:46:00.394Z,12.11
2018-12-22T11:49:02.276Z,12.14
2018-12-22T11:52:04.277Z,12.13
2018-12-22T11:55:07.062Z,12.15
2018-12-22T11:58:08.965Z,12.20
2018-12-22T12:01:10.757Z,12.24
2018-12-22T12:04:12.575Z,12.23
2018-12-22T12:07:14.436Z,12.15
2018-12-22T12:10:16.352Z,12.14
2018-12-22T12:13:18.170Z,12.05
2018-12-22T12:16:21.147Z,12.00
2018-12-22T12:19:23.162Z,11.97
2018-12-22T12:22:25.064Z,11.92
2018-12-22T12:25:27.034Z,11.80
2018-12-22T12:28:28.906Z,11.59
2018-12-22T12:31:30.694Z,11.30
2018-12-22T12:34:32.600Z,11.14
2018-12-22T12:37:34.534Z,10.99
2018-12-22T12:40:36.389Z,10.88
2018-12-22T12:43:38.506Z,10.83
2018-12-22T12:46:40.587Z,10.75
2018-12-22T12:49:42.667Z,10.67
2018-12-22T12:52:44.682Z,10.57
2018-12-22T12:55:46.624Z,10.48
2018-12-22T12:58:48.911Z,10.43
2018-12-22T13:02:00.791Z,10.39
2018-12-22T13:04:56.243Z,10.38
2018-12-22T13:07:58.180Z,10.37
2018-12-22T13:11:00.083Z,10.36
2018-12-22T13:14:02.043Z,10.31
2018-12-22T13:17:04.113Z,10.30
2018-12-22T13:20:10.032Z,10.27
2018-12-22T13:23:12.102Z,10.27
2018-12-22T13:26:14.224Z,10.25
2018-12-22T13:29:16.288Z,10.24
2018-12-22T13:32:18.153Z,10.13
2018-12-22T13:35:20.034Z,10.06
2018-12-22T13:38:21.773Z,9.99
2018-12-22T13:41:23.543Z,9.87
2018-12-22T13:44:25.588Z,9.73
2018-12-22T13:47:27.677Z,9.69
2018-12-22T13:50:29.773Z,9.66
2018-12-22T13:53:31.958Z,9.59
2018-12-22T13:56:34.064Z,9.54
2018-12-22T13:59:35.909Z,9.48
2018-12-22T14:02:37.746Z,9.39
2018-12-22T14:05:39.544Z,9.41
2018-12-22T14:08:41.374Z,9.42
2018-12-22T14:11:43.322Z,9.35
2018-12-22T14:14:45.239Z,9.32
2018-12-22T14:17:55.113Z,9.22
2018-12-22T14:20:56.927Z,9.24
2018-12-22T14:24:03.911Z,9.20
2018-12-22T14:27:05.971Z,9.11
2018-12-22T14:30:11.188Z,9.11
2018-12-22T14:33:12.926Z,9.01
2018-12-22T14:36:14.806Z,9.01
2018-12-22T14:39:16.593Z,9.06
2018-12-22T14:42:18.400Z,9.10
2018-12-22T14:45:20.212Z,9.00
2018-12-22T14:48:22.085Z,8.98
2018-12-22T14:51:23.905Z,8.93
2018-12-22T14:54:25.779Z,8.95
2018-12-22T14:57:28.018Z,8.99
2018-12-22T15:00:29.768Z,8.98
2018-12-22T15:03:31.615Z,9.05
2018-12-22T15:06:34.576Z,9.07
2018-12-22T15:09:36.393Z,9.03
2018-12-22T15:12:38.205Z,8.99
2018-12-22T15:15:40.918Z,8.90
2018-12-22T15:18:42.714Z,8.89
2018-12-22T15:21:44.439Z,8.76
2018-12-22T15:24:46.342Z,8.72
2018-12-22T15:27:48.192Z,8.67
2018-12-22T15:30:50.059Z,8.66
2018-12-22T15:33:52.076Z,8.66
2018-12-22T15:36:53.905Z,8.58
2018-12-22T15:39:55.747Z,8.52
2018-12-22T15:42:57.605Z,8.50
2018-12-22T15:45:59.515Z,8.53
2018-12-22T15:49:01.437Z,8.58
2018-12-22T15:52:03.272Z,8.63
2018-12-22T15:55:07.434Z,8.50
2018-12-22T15:58:09.439Z,8.39
2018-12-22T16:01:11.236Z,8.31
2018-12-22T16:04:13.059Z,8.20
2018-12-22T16:07:15.030Z,8.21
2018-12-22T16:10:16.949Z,8.22
2018-12-22T16:13:20.647Z,8.18
2018-12-22T16:16:22.815Z,8.13
2018-12-22T16:19:24.572Z,8.13
2018-12-22T16:22:26.428Z,8.11
2018-12-22T16:25:28.237Z,8.11
2018-12-22T16:28:30.193Z,8.12
2018-12-22T16:31:32.825Z,8.11
2018-12-22T16:34:35.036Z,8.04
2018-12-22T16:37:36.864Z,8.01
2018-12-22T16:40:38.709Z,7.96
2018-12-22T16:43:40.625Z,7.92
2018-12-22T16:46:42.500Z,7.89
2018-12-22T16:49:44.306Z,7.80
2018-12-22T16:52:46.202Z,7.72
2018-12-22T16:55:48.048Z,7.68
2018-12-22T16:58:50.341Z,7.68
2018-12-22T17:01:52.155Z,7.59
2018-12-22T17:04:54.092Z,7.57
2018-12-22T17:07:55.952Z,7.53
2018-12-22T17:10:58.877Z,7.39
2018-12-22T17:14:00.695Z,7.52
2018-12-22T17:17:02.578Z,7.60
2018-12-22T17:20:08.472Z,7.61
2018-12-22T17:23:26.202Z,7.61
2018-12-22T17:26:29.572Z,7.64
2018-12-22T17:29:31.543Z,7.73
2018-12-22T17:32:33.335Z,7.82
2018-12-22T17:35:35.556Z,7.85
2018-12-22T17:38:37.367Z,7.82
2018-12-22T17:41:39.184Z,7.82
2018-12-22T17:44:40.955Z,7.83
2018-12-22T17:47:42.817Z,7.79
2018-12-22T17:50:44.637Z,7.82
2018-12-22T17:53:46.469Z,7.80
2018-12-22T17:56:48.437Z,7.75
2018-12-22T17:59:51.174Z,7.76
2018-12-22T18:02:53.262Z,7.71
2018-12-22T18:05:55.034Z,7.70
2018-12-22T18:08:56.849Z,7.75
2018-12-22T18:11:58.759Z,7.65
2018-12-22T18:15:00.782Z,7.68
2018-12-22T18:18:02.759Z,7.75
2018-12-22T18:21:04.542Z,7.76
2018-12-22T18:24:06.348Z,7.79
2018-12-22T18:27:08.283Z,7.81
2018-12-22T18:30:11.485Z,7.81
2018-12-22T18:33:13.276Z,7.79
2018-12-22T18:36:15.061Z,7.77
2018-12-22T18:39:17.520Z,7.76
2018-12-22T18:42:19.283Z,7.78
2018-12-22T18:45:21.282Z,7.74
2018-12-22T18:48:23.046Z,7.67
2018-12-22T18:51:25.009Z,7.71
2018-12-22T18:54:26.817Z,7.68
2018-12-22T18:57:28.699Z,7.74
2018-12-22T19:00:30.646Z,7.80
2018-12-22T19:03:32.668Z,7.81
2018-12-22T19:06:34.507Z,7.75
2018-12-22T19:09:36.429Z,7.77
2018-12-22T19:12:38.300Z,7.73
2018-12-22T19:15:40.174Z,7.69
2018-12-22T19:18:42.511Z,7.67
2018-12-22T19:21:44.424Z,7.68
2018-12-22T19:24:46.245Z,7.70
2018-12-22T19:27:48.154Z,7.70
2018-12-22T19:30:50.226Z,7.72
2018-12-22T19:33:53.665Z,7.71
2018-12-22T19:36:55.973Z,7.66
2018-12-22T19:39:57.746Z,7.66
2018-12-22T19:42:59.573Z,7.66
2018-12-22T19:46:01.549Z,7.55
2018-12-22T19:49:03.560Z,7.59
2018-12-22T19:52:05.358Z,7.59
2018-12-22T19:55:07.291Z,7.66
2018-12-22T19:58:09.926Z,7.60
2018-12-22T20:01:12.230Z,7.61
2018-12-22T20:04:14.118Z,7.56
2018-12-22T20:07:16.050Z,7.54
2018-12-22T20:10:17.855Z,7.65
2018-12-22T20:13:19.782Z,7.64
2018-12-22T20:16:21.657Z,7.63
2018-12-22T20:19:23.764Z,7.62
2018-12-22T20:22:25.664Z,7.67
2018-12-22T20:25:27.623Z,7.68
2018-12-22T20:28:29.647Z,7.68
2018-12-22T20:31:31.981Z,7.66
2018-12-22T20:34:34.858Z,7.65
2018-12-22T20:37:37.792Z,7.64
2018-12-22T20:40:40.653Z,7.66
2018-12-22T20:43:43.347Z,7.66
2018-12-22T20:46:45.124Z,7.59
2018-12-22T20:49:46.993Z,7.51
2018-12-22T20:52:48.878Z,7.48
2018-12-22T20:55:50.848Z,7.42
2018-12-22T20:58:52.696Z,7.43
2018-12-22T21:01:55.828Z,7.47
2018-12-22T21:04:57.882Z,7.47
2018-12-22T21:07:59.699Z,7.48
2018-12-22T21:11:01.529Z,7.48
2018-12-22T21:14:04.521Z,7.49
2018-12-22T21:17:06.329Z,7.54
2018-12-22T21:20:08.223Z,7.56
2018-12-22T21:23:10.069Z,7.59
2018-12-22T21:26:11.941Z,7.57
2018-12-22T21:29:13.744Z,7.57
2018-12-22T21:32:15.626Z,7.56
2018-12-22T21:35:17.585Z,7.54
2018-12-22T21:38:19.411Z,7.49
2018-12-22T21:41:21.282Z,7.47
2018-12-22T21:44:23.139Z,7.44
2018-12-22T21:47:25.000Z,7.42
2018-12-22T21:50:26.847Z,7.37
2018-12-22T21:53:28.592Z,7.34
2018-12-22T21:56:30.426Z,7.30
2018-12-22T21:59:32.224Z,7.25
2018-12-22T22:02:34.082Z,7.25
2018-12-22T22:05:35.953Z,7.27
2018-12-22T22:08:37.760Z,7.30
2018-12-22T22:11:39.641Z,7.35
2018-12-22T22:14:41.620Z,7.37
2018-12-22T22:17:43.492Z,7.37
2018-12-22T22:20:45.360Z,7.34
2018-12-22T22:23:47.436Z,7.37
2018-12-22T22:26:50.134Z,7.40
2018-12-22T22:29:52.039Z,7.38
2018-12-22T22:32:53.939Z,7.44
2018-12-22T22:35:55.791Z,7.50
2018-12-22T22:38:57.645Z,7.52
2018-12-22T22:41:59.432Z,7.52
2018-12-22T22:45:01.275Z,7.53
2018-12-22T22:48:03.142Z,7.49
2018-12-22T22:51:05.013Z,7.51
2018-12-22T22:54:06.822Z,7.48
2018-12-22T22:57:08.697Z,7.44
2018-12-22T23:00:12.536Z,7.38
2018-12-22T23:03:14.498Z,7.40
2018-12-22T23:06:16.333Z,7.39
2018-12-22T23:09:18.091Z,7.36
2018-12-22T23:12:19.954Z,7.41
2018-12-22T23:15:22.017Z,7.37
2018-12-22T23:18:23.986Z,7.35
2018-12-22T23:21:25.889Z,7.32
2018-12-22T23:24:27.709Z,7.28
2018-12-22T23:27:29.507Z,7.25
2018-12-22T23:30:31.349Z,7.26
2018-12-22T23:33:33.215Z,7.26
2018-12-22T23:36:34.958Z,7.21
2018-12-22T23:39:36.745Z,7.18
2018-12-22T23:42:38.489Z,7.18
2018-12-22T23:45:40.308Z,7.18
2018-12-22T23:48:42.113Z,7.19
2018-12-22T23:51:43.887Z,7.22
2018-12-22T23:54:45.709Z,7.21
2018-12-22T23:57:47.724Z,7.23
